Kezdőlap
METAR-TAF:

METAR-TAF

Repülőterek :

Nassau, Bahama-szigetek

földrajzi szélesség: 25-03N, földrajzi hosszúság: 077-28W, magasság: 3 m

Jelenlegi meteorológiai megfigyelések

A jelentés 17 perccel ezelõtt készült, 03:00 UTC
Északi szél 12 kt
Hőmérséklet 20°C
Páratartalom 60%
Légköri nyomás 1023 hPa
Látótávolság 10 km, vagy több
Kevés felhő 4000 lábon

METAR: MYNN 120300Z 01012KT 9999 FEW040 20/12 A3021

Idő: 22:17 (03:17 UTC)

Előrejelzés

A jelentés 5 órával és 17 perccel ezelõtt készült, 22:00 UTC
Az előrejelzés 12-én 00 óra UTC és 12-én 24 óra UTC között érvényes
Északi szél 15 kt
Látótávolság 10 km, vagy több
Szakadozott felhőzet 3000 lábon
12-én 13 óra UTC és 12-én 15 óra UTC között fokozatosan kialakuló
Észak-északkeleti szél 12 kt
Szórványos felhőzet 3000 lábon

TAF: MYNN 112200Z 1200/1224 35015KT 9999 BKN030 BECMG 1213/1215 03012KT SCT030

Meteorológiai megfigyelések és előrejelzések több, mint 4000 repülőtéren (METAR és TAF jelentéseket).

A térképen piros és sárga pontok jelzik az elérhető meteorológiai állomásokat.

Mozgassa az egeret a pont fölött, hogy megjelenjen az állomás neve.

Azután kattintson az időjárási megfigyelések és előrejelzések megtekintéséhez.

A térkép megváltoztatása: kattintson a fekete keresztel jelölt zöld gombra ráközelítéshez, a vonallal jelölt zöld gombra távolításhoz, vagy a zöld nyilakra a szomszédos térképek eléréséhez.


METAR-TAF: